sensor_id;sensor_type;location;lat;lon;timestamp;pressure;altitude;pressure_sealevel;temperature;humidity
73151;BME280;61354;50.758;6.106;2023-07-20T00:00:17;99052.63;;;16.49;100.00
73151;BME280;61354;50.758;6.106;2023-07-20T00:02:42;99053.00;;;16.58;100.00
73151;BME280;61354;50.758;6.106;2023-07-20T00:05:08;99045.81;;;16.36;100.00
73151;BME280;61354;50.758;6.106;2023-07-20T00:07:33;99044.19;;;16.42;100.00
73151;BME280;61354;50.758;6.106;2023-07-20T00:09:59;99047.81;;;16.46;100.00
73151;BME280;61354;50.758;6.106;2023-07-20T00:12:25;99044.59;;;16.37;100.00
73151;BME280;61354;50.758;6.106;2023-07-20T00:14:50;99044.19;;;16.31;100.00
73151;BME280;61354;50.758;6.106;2023-07-20T00:17:19;99047.81;;;16.32;100.00
73151;BME280;61354;50.758;6.106;2023-07-20T00:19:44;99044.59;;;16.37;100.00
73151;BME280;61354;50.758;6.106;2023-07-20T00:22:10;99044.19;;;16.21;100.00
73151;BME280;61354;50.758;6.106;2023-07-20T00:24:36;99045.81;;;16.22;100.00
73151;BME280;61354;50.758;6.106;2023-07-20T00:27:01;99051.81;;;16.31;100.00
73151;BME280;61354;50.758;6.106;2023-07-20T00:29:28;99046.97;;;16.06;100.00
73151;BME280;61354;50.758;6.106;2023-07-20T00:31:53;99045.38;;;16.05;100.00
73151;BME280;61354;50.758;6.106;2023-07-20T00:34:19;99044.16;;;16.17;100.00
73151;BME280;61354;50.758;6.106;2023-07-20T00:36:44;99048.97;;;16.02;100.00
73151;BME280;61354;50.758;6.106;2023-07-20T00:39:10;99047.38;;;16.01;100.00
73151;BME280;61354;50.758;6.106;2023-07-20T00:41:35;99045.31;;;15.91;100.00
73151;BME280;61354;50.758;6.106;2023-07-20T00:44:01;99041.72;;;15.90;100.00
73151;BME280;61354;50.758;6.106;2023-07-20T00:46:26;99036.91;;;15.84;100.00
73151;BME280;61354;50.758;6.106;2023-07-20T00:48:53;99042.50;;;15.84;100.00
73151;BME280;61354;50.758;6.106;2023-07-20T00:51:20;99042.03;;;15.64;100.00
73151;BME280;61354;50.758;6.106;2023-07-20T00:53:47;99035.28;;;15.72;100.00
73151;BME280;61354;50.758;6.106;2023-07-20T00:56:12;99043.66;;;15.76;100.00
73151;BME280;61354;50.758;6.106;2023-07-20T00:58:38;99036.88;;;15.70;100.00
73151;BME280;61354;50.758;6.106;2023-07-20T01:01:03;99040.06;;;15.72;100.00
73151;BME280;61354;50.758;6.106;2023-07-20T01:03:29;99041.59;;;15.62;100.00
73151;BME280;61354;50.758;6.106;2023-07-20T01:08:35;99036.78;;;15.59;100.00
73151;BME280;61354;50.758;6.106;2023-07-20T01:11:11;99036.38;;;15.53;100.00
73151;BME280;61354;50.758;6.106;2023-07-20T01:13:38;99033.16;;;15.55;100.00
73151;BME280;61354;50.758;6.106;2023-07-20T01:16:05;99034.34;;;15.50;100.00
73151;BME280;61354;50.758;6.106;2023-07-20T01:18:30;99034.34;;;15.50;100.00
73151;BME280;61354;50.758;6.106;2023-07-20T01:20:59;99034.34;;;15.43;100.00
73151;BME280;61354;50.758;6.106;2023-07-20T01:29:06;99027.44;;;15.23;100.00
73151;BME280;61354;50.758;6.106;2023-07-20T01:31:36;99026.25;;;15.24;100.00
73151;BME280;61354;50.758;6.106;2023-07-20T01:34:03;99022.25;;;15.25;100.00
73151;BME280;61354;50.758;6.106;2023-07-20T01:36:34;99027.47;;;15.33;100.00
73151;BME280;61354;50.758;6.106;2023-07-20T01:39:00;99031.84;;;15.24;100.00
73151;BME280;61354;50.758;6.106;2023-07-20T01:41:30;99031.84;;;15.24;100.00
73151;BME280;61354;50.758;6.106;2023-07-20T01:43:59;99028.66;;;15.29;100.00
73151;BME280;61354;50.758;6.106;2023-07-20T01:46:25;99025.50;;;15.30;100.00
73151;BME280;61354;50.758;6.106;2023-07-20T01:48:50;99027.84;;;15.25;100.00
73151;BME280;61354;50.758;6.106;2023-07-20T01:51:16;99026.31;;;15.34;100.00
73151;BME280;61354;50.758;6.106;2023-07-20T01:53:43;99029.47;;;15.29;100.00
73151;BME280;61354;50.758;6.106;2023-07-20T01:56:09;99023.06;;;15.29;100.00
73151;BME280;61354;50.758;6.106;2023-07-20T01:58:34;99032.72;;;15.35;100.00
73151;BME280;61354;50.758;6.106;2023-07-20T02:01:00;99025.09;;;15.32;100.00
73151;BME280;61354;50.758;6.106;2023-07-20T02:03:27;99018.25;;;15.19;100.00
73151;BME280;61354;50.758;6.106;2023-07-20T02:05:52;99015.06;;;15.24;100.00
73151;BME280;61354;50.758;6.106;2023-07-20T02:08:18;99020.56;;;15.09;100.00
73151;BME280;61354;50.758;6.106;2023-07-20T02:10:47;99014.22;;;15.16;100.00
73151;BME280;61354;50.758;6.106;2023-07-20T02:13:13;99014.22;;;15.16;100.00
73151;BME280;61354;50.758;6.106;2023-07-20T02:15:38;99010.63;;;15.15;100.00
73151;BME280;61354;50.758;6.106;2023-07-20T02:18:04;99013.81;;;15.17;100.00
73151;BME280;61354;50.758;6.106;2023-07-20T02:20:29;99023.78;;;15.11;100.00
73151;BME280;61354;50.758;6.106;2023-07-20T02:22:55;99013.41;;;15.15;100.00
73151;BME280;61354;50.758;6.106;2023-07-20T02:25:21;99016.16;;;15.08;100.00
73151;BME280;61354;50.758;6.106;2023-07-20T02:27:47;99011.41;;;15.12;100.00
73151;BME280;61354;50.758;6.106;2023-07-20T02:30:12;99004.63;;;15.10;100.00
73151;BME280;61354;50.758;6.106;2023-07-20T02:32:39;99015.03;;;15.20;100.00
73151;BME280;61354;50.758;6.106;2023-07-20T02:35:05;99015.00;;;15.16;100.00
73151;BME280;61354;50.758;6.106;2023-07-20T02:37:31;99014.19;;;15.12;100.00
73151;BME280;61354;50.758;6.106;2023-07-20T02:39:57;99019.34;;;15.03;100.00
73151;BME280;61354;50.758;6.106;2023-07-20T02:42:23;99018.25;;;15.19;100.00
73151;BME280;61354;50.758;6.106;2023-07-20T02:44:51;99018.22;;;15.15;100.00
73151;BME280;61354;50.758;6.106;2023-07-20T02:47:16;99018.25;;;15.22;100.00
73151;BME280;61354;50.758;6.106;2023-07-20T02:49:42;99021.75;;;15.08;100.00
73151;BME280;61354;50.758;6.106;2023-07-20T02:52:07;99030.59;;;15.14;100.00
73151;BME280;61354;50.758;6.106;2023-07-20T02:54:33;99025.84;;;15.18;100.00
73151;BME280;61354;50.758;6.106;2023-07-20T02:56:59;99028.66;;;15.25;100.00
73151;BME280;61354;50.758;6.106;2023-07-20T02:59:24;99019.00;;;15.15;100.00
73151;BME280;61354;50.758;6.106;2023-07-20T03:01:50;99028.19;;;15.12;100.00
73151;BME280;61354;50.758;6.106;2023-07-20T03:04:15;99031.41;;;15.22;100.00
73151;BME280;61354;50.758;6.106;2023-07-20T03:06:41;99031.03;;;15.20;100.00
73151;BME280;61354;50.758;6.106;2023-07-20T03:09:07;99039.41;;;15.20;100.00
73151;BME280;61354;50.758;6.106;2023-07-20T03:11:34;99041.38;;;15.15;100.00
73151;BME280;61354;50.758;6.106;2023-07-20T03:14:00;99037.84;;;15.29;100.00
73151;BME280;61354;50.758;6.106;2023-07-20T03:16:25;99041.38;;;15.15;100.00
73151;BME280;61354;50.758;6.106;2023-07-20T03:18:52;99046.56;;;15.13;100.00
73151;BME280;61354;50.758;6.106;2023-07-20T03:21:17;99045.00;;;15.20;100.00
73151;BME280;61354;50.758;6.106;2023-07-20T03:23:43;99033.53;;;15.39;100.00
73151;BME280;61354;50.758;6.106;2023-07-20T03:26:08;99032.28;;;15.33;100.00
73151;BME280;61354;50.758;6.106;2023-07-20T03:28:37;99035.88;;;15.26;100.00
73151;BME280;61354;50.758;6.106;2023-07-20T03:31:03;99029.44;;;15.22;100.00
73151;BME280;61354;50.758;6.106;2023-07-20T03:33:30;99040.13;;;15.09;100.00
73151;BME280;61354;50.758;6.106;2023-07-20T03:35:57;99036.91;;;15.00;100.00
73151;BME280;61354;50.758;6.106;2023-07-20T03:38:23;99037.28;;;14.95;100.00
73151;BME280;61354;50.758;6.106;2023-07-20T03:43:16;99043.69;;;14.99;100.00
73151;BME280;61354;50.758;6.106;2023-07-20T03:45:42;99044.47;;;14.96;100.00
73151;BME280;61354;50.758;6.106;2023-07-20T03:48:08;99044.44;;;14.89;100.00
73151;BME280;61354;50.758;6.106;2023-07-20T03:50:33;99043.59;;;14.85;100.00
73151;BME280;61354;50.758;6.106;2023-07-20T03:52:59;99045.94;;;14.79;100.00
73151;BME280;61354;50.758;6.106;2023-07-20T03:55:24;99048.47;;;14.95;100.00
73151;BME280;61354;50.758;6.106;2023-07-20T03:57:50;99051.75;;;15.11;100.00
73151;BME280;61354;50.758;6.106;2023-07-20T04:00:17;99049.34;;;15.10;100.00
73151;BME280;61354;50.758;6.106;2023-07-20T04:02:42;99055.25;;;14.94;100.00
73151;BME280;61354;50.758;6.106;2023-07-20T04:05:08;99047.63;;;14.91;100.00
73151;BME280;61354;50.758;6.106;2023-07-20T04:07:34;99062.03;;;14.93;100.00
73151;BME280;61354;50.758;6.106;2023-07-20T04:10:03;99060.47;;;14.99;100.00
73151;BME280;61354;50.758;6.106;2023-07-20T04:12:29;99054.88;;;14.99;100.00
73151;BME280;61354;50.758;6.106;2023-07-20T04:14:54;99058.88;;;15.05;100.00
73151;BME280;61354;50.758;6.106;2023-07-20T04:17:20;99059.59;;;14.88;100.00
73151;BME280;61354;50.758;6.106;2023-07-20T04:19:46;99059.63;;;14.95;100.00
73151;BME280;61354;50.758;6.106;2023-07-20T04:22:11;99060.53;;;15.06;100.00
73151;BME280;61354;50.758;6.106;2023-07-20T04:24:37;99063.28;;;15.03;100.00
73151;BME280;61354;50.758;6.106;2023-07-20T04:27:05;99061.25;;;15.00;100.00
73151;BME280;61354;50.758;6.106;2023-07-20T04:29:31;99065.19;;;14.91;100.00
73151;BME280;61354;50.758;6.106;2023-07-20T04:31:59;99067.69;;;15.04;100.00
73151;BME280;61354;50.758;6.106;2023-07-20T04:34:25;99065.31;;;15.09;100.00
73151;BME280;61354;50.758;6.106;2023-07-20T04:36:51;99067.84;;;15.32;100.00
73151;BME280;61354;50.758;6.106;2023-07-20T04:39:16;99071.00;;;15.24;100.00
73151;BME280;61354;50.758;6.106;2023-07-20T04:41:42;99074.19;;;15.19;100.00
73151;BME280;61354;50.758;6.106;2023-07-20T04:44:08;99084.53;;;15.14;100.00
73151;BME280;61354;50.758;6.106;2023-07-20T04:46:33;99083.34;;;15.15;100.00
73151;BME280;61354;50.758;6.106;2023-07-20T04:48:59;99074.63;;;15.28;100.00
73151;BME280;61354;50.758;6.106;2023-07-20T04:51:25;99081.34;;;15.16;100.00
73151;BME280;61354;50.758;6.106;2023-07-20T04:53:50;99076.16;;;15.22;100.00
73151;BME280;61354;50.758;6.106;2023-07-20T04:56:16;99087.84;;;15.38;100.00
73151;BME280;61354;50.758;6.106;2023-07-20T04:58:42;99079.84;;;15.33;100.00
73151;BME280;61354;50.758;6.106;2023-07-20T05:01:08;99082.91;;;15.06;100.00
73151;BME280;61354;50.758;6.106;2023-07-20T05:03:34;99080.25;;;15.38;100.00
73151;BME280;61354;50.758;6.106;2023-07-20T05:05:59;99084.72;;;15.50;100.00
73151;BME280;61354;50.758;6.106;2023-07-20T05:08:25;99081.50;;;15.41;100.00
73151;BME280;61354;50.758;6.106;2023-07-20T05:10:50;99083.03;;;15.31;100.00
73151;BME280;61354;50.758;6.106;2023-07-20T05:13:16;99079.50;;;15.41;100.00
73151;BME280;61354;50.758;6.106;2023-07-20T05:15:42;99078.69;;;15.41;100.00
73151;BME280;61354;50.758;6.106;2023-07-20T05:18:08;99074.34;;;15.51;100.00
73151;BME280;61354;50.758;6.106;2023-07-20T05:20:34;99083.91;;;15.46;100.00
73151;BME280;61354;50.758;6.106;2023-07-20T05:23:00;99075.16;;;15.58;100.00
73151;BME280;61354;50.758;6.106;2023-07-20T05:25:26;99074.72;;;15.49;100.00
73151;BME280;61354;50.758;6.106;2023-07-20T05:27:52;99077.47;;;15.35;100.00
73151;BME280;61354;50.758;6.106;2023-07-20T05:30:17;99075.97;;;15.52;100.00
73151;BME280;61354;50.758;6.106;2023-07-20T05:32:44;99074.34;;;15.47;100.00
73151;BME280;61354;50.758;6.106;2023-07-20T05:35:19;99075.53;;;15.50;100.00
73151;BME280;61354;50.758;6.106;2023-07-20T05:37:45;99082.69;;;15.40;100.00
73151;BME280;61354;50.758;6.106;2023-07-20T05:40:12;99075.88;;;15.41;100.00
73151;BME280;61354;50.758;6.106;2023-07-20T05:42:38;99077.16;;;15.54;100.00
73151;BME280;61354;50.758;6.106;2023-07-20T05:45:05;99074.78;;;15.56;100.00
73151;BME280;61354;50.758;6.106;2023-07-20T05:47:30;99075.13;;;15.44;100.00
73151;BME280;61354;50.758;6.106;2023-07-20T05:49:57;99079.94;;;15.47;100.00
73151;BME280;61354;50.758;6.106;2023-07-20T05:52:23;99083.47;;;15.37;100.00
73151;BME280;61354;50.758;6.106;2023-07-20T05:54:48;99085.53;;;15.54;100.00
73151;BME280;61354;50.758;6.106;2023-07-20T05:57:14;99090.31;;;15.43;100.00
73151;BME280;61354;50.758;6.106;2023-07-20T05:59:39;99095.97;;;15.57;100.00
73151;BME280;61354;50.758;6.106;2023-07-20T06:02:09;99099.66;;;15.76;100.00
73151;BME280;61354;50.758;6.106;2023-07-20T06:04:35;99096.03;;;15.64;100.00
73151;BME280;61354;50.758;6.106;2023-07-20T06:07:01;99101.63;;;15.64;100.00
73151;BME280;61354;50.758;6.106;2023-07-20T06:09:26;99096.47;;;15.74;100.00
73151;BME280;61354;50.758;6.106;2023-07-20T06:11:53;99100.84;;;15.68;100.00
73151;BME280;61354;50.758;6.106;2023-07-20T06:14:18;99105.53;;;15.53;100.00
73151;BME280;61354;50.758;6.106;2023-07-20T06:16:44;99105.97;;;15.58;100.00
73151;BME280;61354;50.758;6.106;2023-07-20T06:19:10;99105.13;;;15.54;100.00
73151;BME280;61354;50.758;6.106;2023-07-20T06:21:39;99100.72;;;15.50;100.00
73151;BME280;61354;50.758;6.106;2023-07-20T06:24:05;99108.75;;;15.58;100.00
73151;BME280;61354;50.758;6.106;2023-07-20T06:26:31;99109.91;;;15.50;100.00
73151;BME280;61354;50.758;6.106;2023-07-20T06:28:57;99103.66;;;15.71;100.00
73151;BME280;61354;50.758;6.106;2023-07-20T06:31:23;99104.03;;;15.70;100.00
73151;BME280;61354;50.758;6.106;2023-07-20T06:33:49;99108.56;;;15.99;100.00
73151;BME280;61354;50.758;6.106;2023-07-20T06:36:17;99095.78;;;16.05;99.91
73151;BME280;61354;50.758;6.106;2023-07-20T06:38:43;99096.19;;;16.07;99.78
73151;BME280;61354;50.758;6.106;2023-07-20T06:41:08;99102.59;;;16.11;98.46
73151;BME280;61354;50.758;6.106;2023-07-20T06:43:34;99104.56;;;16.00;98.77
73151;BME280;61354;50.758;6.106;2023-07-20T06:46:00;99102.59;;;16.11;98.78
73151;BME280;61354;50.758;6.106;2023-07-20T06:48:26;99099.47;;;16.45;97.51
73151;BME280;61354;50.758;6.106;2023-07-20T06:50:51;99108.28;;;16.54;97.05
73151;BME280;61354;50.758;6.106;2023-07-20T06:53:17;99101.06;;;16.53;96.54
73151;BME280;61354;50.758;6.106;2023-07-20T06:55:43;99104.69;;;16.61;95.71
73151;BME280;61354;50.758;6.106;2023-07-20T06:58:09;99107.50;;;16.64;95.47
73151;BME280;61354;50.758;6.106;2023-07-20T07:00:35;99107.13;;;16.77;94.26
73151;BME280;61354;50.758;6.106;2023-07-20T07:03:00;99099.94;;;16.76;94.46
73151;BME280;61354;50.758;6.106;2023-07-20T07:05:26;99101.09;;;16.68;92.06
73151;BME280;61354;50.758;6.106;2023-07-20T07:07:52;99117.50;;;16.51;92.45
73151;BME280;61354;50.758;6.106;2023-07-20T07:10:17;99105.84;;;16.46;92.89
73151;BME280;61354;50.758;6.106;2023-07-20T07:12:43;99105.09;;;16.63;92.22
73151;BME280;61354;50.758;6.106;2023-07-20T07:15:09;99098.66;;;16.62;92.48
73151;BME280;61354;50.758;6.106;2023-07-20T07:17:36;99109.88;;;16.62;92.05
73151;BME280;61354;50.758;6.106;2023-07-20T07:20:02;99107.09;;;16.70;90.56
73151;BME280;61354;50.758;6.106;2023-07-20T07:22:29;99104.31;;;16.77;89.60
73151;BME280;61354;50.758;6.106;2023-07-20T07:24:54;99109.53;;;16.96;90.30
73151;BME280;61354;50.758;6.106;2023-07-20T07:27:20;99118.72;;;17.11;89.74
73151;BME280;61354;50.758;6.106;2023-07-20T07:29:45;99110.31;;;17.18;86.18
73151;BME280;61354;50.758;6.106;2023-07-20T07:32:12;99112.31;;;17.21;85.92
73151;BME280;61354;50.758;6.106;2023-07-20T07:34:38;99114.66;;;17.33;86.30
73151;BME280;61354;50.758;6.106;2023-07-20T07:37:04;99117.91;;;17.25;84.21
73151;BME280;61354;50.758;6.106;2023-07-20T07:39:30;99115.16;;;16.96;84.98
73151;BME280;61354;50.758;6.106;2023-07-20T07:41:56;99118.34;;;16.98;83.03
73151;BME280;61354;50.758;6.106;2023-07-20T07:44:22;99123.56;;;16.96;83.62
73151;BME280;61354;50.758;6.106;2023-07-20T07:46:48;99124.34;;;17.14;82.58
73151;BME280;61354;50.758;6.106;2023-07-20T07:49:15;99126.72;;;17.27;84.20
73151;BME280;61354;50.758;6.106;2023-07-20T07:51:40;99111.47;;;17.42;84.70
73151;BME280;61354;50.758;6.106;2023-07-20T07:54:06;99119.47;;;17.51;83.45
73151;BME280;61354;50.758;6.106;2023-07-20T07:56:31;99132.72;;;17.29;83.00
73151;BME280;61354;50.758;6.106;2023-07-20T07:58:57;99130.75;;;17.26;83.38
73151;BME280;61354;50.758;6.106;2023-07-20T08:01:23;99124.34;;;17.25;80.82
73151;BME280;61354;50.758;6.106;2023-07-20T08:03:48;99128.31;;;17.24;81.74
73151;BME280;61354;50.758;6.106;2023-07-20T08:06:14;99119.50;;;17.33;79.13
73151;BME280;61354;50.758;6.106;2023-07-20T08:08:40;99123.47;;;17.50;81.17
73151;BME280;61354;50.758;6.106;2023-07-20T08:11:05;99121.84;;;17.56;82.00
73151;BME280;61354;50.758;6.106;2023-07-20T08:13:31;99115.81;;;17.64;82.34
73151;BME280;61354;50.758;6.106;2023-07-20T08:15:57;99124.63;;;17.67;80.69
73151;BME280;61354;50.758;6.106;2023-07-20T08:18:24;99125.88;;;17.55;79.17
73151;BME280;61354;50.758;6.106;2023-07-20T08:20:50;99121.84;;;17.59;78.31
73151;BME280;61354;50.758;6.106;2023-07-20T08:23:15;99130.66;;;17.61;78.52
73151;BME280;61354;50.758;6.106;2023-07-20T08:25:41;99126.56;;;17.91;79.29
73151;BME280;61354;50.758;6.106;2023-07-20T08:28:11;99134.16;;;18.01;76.61
73151;BME280;61354;50.758;6.106;2023-07-20T08:30:47;99123.69;;;18.12;75.70
73151;BME280;61354;50.758;6.106;2023-07-20T08:33:14;99128.63;;;17.73;77.25
73151;BME280;61354;50.758;6.106;2023-07-20T08:35:40;99133.72;;;18.10;78.75
73151;BME280;61354;50.758;6.106;2023-07-20T08:38:06;99131.66;;;18.25;77.02
73151;BME280;61354;50.758;6.106;2023-07-20T08:40:44;99131.38;;;17.91;76.84
73151;BME280;61354;50.758;6.106;2023-07-20T08:43:14;99133.41;;;17.86;77.65
73151;BME280;61354;50.758;6.106;2023-07-20T08:45:44;99140.66;;;17.84;77.09
73151;BME280;61354;50.758;6.106;2023-07-20T08:48:11;99147.47;;;17.72;76.73
73151;BME280;61354;50.758;6.106;2023-07-20T08:50:38;99141.06;;;17.72;77.32
73151;BME280;61354;50.758;6.106;2023-07-20T08:53:03;99145.88;;;17.82;76.62
73151;BME280;61354;50.758;6.106;2023-07-20T08:55:30;99138.28;;;17.75;76.65
73151;BME280;61354;50.758;6.106;2023-07-20T08:57:57;99143.75;;;18.07;77.53
73151;BME280;61354;50.758;6.106;2023-07-20T09:00:24;99135.31;;;18.07;77.07
73151;BME280;61354;50.758;6.106;2023-07-20T09:02:53;99129.69;;;18.14;76.69
73151;BME280;61354;50.758;6.106;2023-07-20T09:05:19;99140.16;;;18.03;76.26
73151;BME280;61354;50.758;6.106;2023-07-20T09:07:45;99130.56;;;17.97;74.05
73151;BME280;61354;50.758;6.106;2023-07-20T09:10:11;99126.88;;;18.14;76.75
73151;BME280;61354;50.758;6.106;2023-07-20T09:12:42;99131.31;;;18.08;76.72
73151;BME280;61354;50.758;6.106;2023-07-20T09:15:09;99134.06;;;18.23;77.26
73151;BME280;61354;50.758;6.106;2023-07-20T09:17:35;99121.59;;;18.24;75.76
73151;BME280;61354;50.758;6.106;2023-07-20T09:20:07;99131.59;;;18.32;73.79
73151;BME280;61354;50.758;6.106;2023-07-20T09:22:39;99135.63;;;18.31;72.12
73151;BME280;61354;50.758;6.106;2023-07-20T09:25:12;99132.78;;;18.34;71.24
73151;BME280;61354;50.758;6.106;2023-07-20T09:27:46;99137.91;;;18.54;71.62
73151;BME280;61354;50.758;6.106;2023-07-20T09:30:14;99125.81;;;18.53;71.66
73151;BME280;61354;50.758;6.106;2023-07-20T09:32:45;99128.16;;;18.66;70.83
73151;BME280;61354;50.758;6.106;2023-07-20T09:35:19;99123.88;;;18.47;65.90
73151;BME280;61354;50.758;6.106;2023-07-20T09:37:56;99124.69;;;18.44;63.23
73151;BME280;61354;50.758;6.106;2023-07-20T09:40:24;99122.97;;;18.60;66.87
73151;BME280;61354;50.758;6.106;2023-07-20T09:42:52;99127.78;;;18.60;68.31
73151;BME280;61354;50.758;6.106;2023-07-20T09:45:18;99120.13;;;18.68;69.44
73151;BME280;61354;50.758;6.106;2023-07-20T09:47:44;99124.66;;;18.47;68.02
73151;BME280;61354;50.758;6.106;2023-07-20T09:50:10;99127.44;;;18.54;70.00
73151;BME280;61354;50.758;6.106;2023-07-20T09:52:42;99122.53;;;18.62;70.23
73151;BME280;61354;50.758;6.106;2023-07-20T09:55:10;99122.13;;;18.71;69.64
73151;BME280;61354;50.758;6.106;2023-07-20T09:57:38;99125.63;;;18.85;68.98
73151;BME280;61354;50.758;6.106;2023-07-20T10:00:06;99126.00;;;18.91;68.17
73151;BME280;61354;50.758;6.106;2023-07-20T10:02:41;99125.16;;;18.94;67.76
73151;BME280;61354;50.758;6.106;2023-07-20T10:05:08;99119.31;;;19.16;68.11
73151;BME280;61354;50.758;6.106;2023-07-20T10:07:35;99124.25;;;19.08;67.41
73151;BME280;61354;50.758;6.106;2023-07-20T10:10:02;99121.06;;;19.02;67.81
73151;BME280;61354;50.758;6.106;2023-07-20T10:12:29;99124.69;;;18.99;68.16
73151;BME280;61354;50.758;6.106;2023-07-20T10:15:25;99121.97;;;18.92;68.79
73151;BME280;61354;50.758;6.106;2023-07-20T10:18:02;99131.94;;;19.00;68.56
73151;BME280;61354;50.758;6.106;2023-07-20T10:20:30;99122.47;;;18.80;68.75
73151;BME280;61354;50.758;6.106;2023-07-20T10:22:57;99129.34;;;18.72;69.16
73151;BME280;61354;50.758;6.106;2023-07-20T10:25:23;99129.34;;;18.68;69.11
73151;BME280;61354;50.758;6.106;2023-07-20T10:27:49;99133.53;;;18.46;69.31
73151;BME280;61354;50.758;6.106;2023-07-20T10:30:17;99127.91;;;18.46;68.00
73151;BME280;61354;50.758;6.106;2023-07-20T10:32:44;99123.72;;;18.72;68.41
73151;BME280;61354;50.758;6.106;2023-07-20T10:35:14;99128.38;;;18.96;67.81
73151;BME280;61354;50.758;6.106;2023-07-20T10:38:01;99126.56;;;19.17;67.67
73151;BME280;61354;50.758;6.106;2023-07-20T10:40:30;99128.88;;;19.29;67.02
73151;BME280;61354;50.758;6.106;2023-07-20T10:43:01;99116.69;;;19.39;66.79
73151;BME280;61354;50.758;6.106;2023-07-20T10:45:49;99108.78;;;19.65;66.93
73151;BME280;61354;50.758;6.106;2023-07-20T10:48:20;99099.25;;;19.51;63.92
73151;BME280;61354;50.758;6.106;2023-07-20T10:51:19;99107.94;;;19.71;64.66
73151;BME280;61354;50.758;6.106;2023-07-20T10:53:48;99097.03;;;19.73;64.60
73151;BME280;61354;50.758;6.106;2023-07-20T10:56:19;99103.28;;;19.54;62.42
73151;BME280;61354;50.758;6.106;2023-07-20T10:58:45;99101.84;;;19.73;62.70
73151;BME280;61354;50.758;6.106;2023-07-20T11:01:16;99095.69;;;19.85;62.46
73151;BME280;61354;50.758;6.106;2023-07-20T11:03:41;99093.13;;;19.94;64.54
73151;BME280;61354;50.758;6.106;2023-07-20T11:09:08;99087.88;;;19.96;60.43
73151;BME280;61354;50.758;6.106;2023-07-20T11:11:41;99096.50;;;19.82;60.28
73151;BME280;61354;50.758;6.106;2023-07-20T11:14:09;99095.50;;;19.65;61.13
73151;BME280;61354;50.758;6.106;2023-07-20T11:16:44;99099.72;;;19.08;59.89
73151;BME280;61354;50.758;6.106;2023-07-20T11:19:25;99094.38;;;19.18;60.34
73151;BME280;61354;50.758;6.106;2023-07-20T11:21:56;99090.97;;;19.37;60.64
73151;BME280;61354;50.758;6.106;2023-07-20T11:24:23;99096.72;;;19.64;60.88
73151;BME280;61354;50.758;6.106;2023-07-20T11:26:51;99093.03;;;19.71;60.55
73151;BME280;61354;50.758;6.106;2023-07-20T11:29:19;99087.31;;;19.78;59.89
73151;BME280;61354;50.758;6.106;2023-07-20T11:31:46;99084.47;;;19.78;55.98
73151;BME280;61354;50.758;6.106;2023-07-20T11:34:13;99086.50;;;19.77;56.17
73151;BME280;61354;50.758;6.106;2023-07-20T11:36:44;99083.44;;;19.65;56.81
73151;BME280;61354;50.758;6.106;2023-07-20T11:39:13;99089.22;;;19.50;57.80
73151;BME280;61354;50.758;6.106;2023-07-20T11:41:44;99080.22;;;19.66;58.01
73151;BME280;61354;50.758;6.106;2023-07-20T11:44:10;99082.53;;;19.75;57.65
73151;BME280;61354;50.758;6.106;2023-07-20T11:46:41;99082.13;;;19.73;55.61
73151;BME280;61354;50.758;6.106;2023-07-20T11:49:08;99082.19;;;19.69;53.70
73151;BME280;61354;50.758;6.106;2023-07-20T11:51:34;99080.13;;;20.04;55.14
73151;BME280;61354;50.758;6.106;2023-07-20T11:54:01;99067.50;;;20.16;54.48
73151;BME280;61354;50.758;6.106;2023-07-20T11:56:27;99072.25;;;20.19;54.93
73151;BME280;61354;50.758;6.106;2023-07-20T11:58:59;99075.69;;;20.33;56.47
73151;BME280;61354;50.758;6.106;2023-07-20T12:01:27;99069.56;;;20.39;56.42
73151;BME280;61354;50.758;6.106;2023-07-20T12:03:57;99076.38;;;20.41;52.95
73151;BME280;61354;50.758;6.106;2023-07-20T12:06:25;99065.56;;;20.36;52.95
73151;BME280;61354;50.758;6.106;2023-07-20T12:08:57;99060.94;;;20.22;53.59
73151;BME280;61354;50.758;6.106;2023-07-20T12:11:38;99064.06;;;20.28;55.44
73151;BME280;61354;50.758;6.106;2023-07-20T12:14:07;99056.22;;;20.16;56.24
73151;BME280;61354;50.758;6.106;2023-07-20T12:16:33;99054.41;;;20.29;56.04
73151;BME280;61354;50.758;6.106;2023-07-20T12:19:08;99049.53;;;20.02;54.94
73151;BME280;61354;50.758;6.106;2023-07-20T12:21:35;99059.81;;;20.43;53.94
73151;BME280;61354;50.758;6.106;2023-07-20T12:24:06;99047.84;;;20.35;55.35
73151;BME280;61354;50.758;6.106;2023-07-20T12:26:33;99045.34;;;20.41;55.74
73151;BME280;61354;50.758;6.106;2023-07-20T12:28:59;99048.28;;;20.61;54.98
73151;BME280;61354;50.758;6.106;2023-07-20T12:31:27;99039.44;;;20.59;53.59
73151;BME280;61354;50.758;6.106;2023-07-20T12:33:53;99044.47;;;20.44;53.00
73151;BME280;61354;50.758;6.106;2023-07-20T12:36:22;99039.59;;;20.99;52.45
73151;BME280;61354;50.758;6.106;2023-07-20T12:38:48;99032.94;;;20.85;51.96
73151;BME280;61354;50.758;6.106;2023-07-20T12:41:14;99039.31;;;20.90;51.50
73151;BME280;61354;50.758;6.106;2023-07-20T12:43:44;99039.03;;;20.84;51.36
73151;BME280;61354;50.758;6.106;2023-07-20T12:46:11;99033.69;;;20.39;52.42
73151;BME280;61354;50.758;6.106;2023-07-20T12:48:37;99026.91;;;20.36;52.78
73151;BME280;61354;50.758;6.106;2023-07-20T12:51:06;99025.66;;;20.65;52.65
73151;BME280;61354;50.758;6.106;2023-07-20T12:53:32;99023.69;;;20.85;55.54
73151;BME280;61354;50.758;6.106;2023-07-20T12:55:58;99028.84;;;20.67;52.13
73151;BME280;61354;50.758;6.106;2023-07-20T12:58:24;99030.63;;;20.57;53.60
73151;BME280;61354;50.758;6.106;2023-07-20T13:00:52;99037.63;;;20.45;52.23
73151;BME280;61354;50.758;6.106;2023-07-20T13:03:17;99028.28;;;20.52;52.32
73151;BME280;61354;50.758;6.106;2023-07-20T13:05:45;99031.69;;;20.90;52.01
73151;BME280;61354;50.758;6.106;2023-07-20T13:08:11;99024.75;;;21.15;50.21